createdAt,value
2019-03-10T00:00:47.844Z,4.40
2019-03-10T00:03:17.752Z,4.37
2019-03-10T00:05:47.801Z,4.40
2019-03-10T00:08:18.287Z,4.40
2019-03-10T00:10:48.344Z,4.39
2019-03-10T00:13:18.400Z,4.39
2019-03-10T00:15:48.400Z,4.40
2019-03-10T00:18:18.391Z,4.41
2019-03-10T00:20:48.195Z,4.37
2019-03-10T00:23:18.782Z,4.41
2019-03-10T00:25:48.554Z,4.30
2019-03-10T00:28:18.697Z,4.15
2019-03-10T00:30:48.771Z,4.05
2019-03-10T00:33:18.707Z,3.99
2019-03-10T00:35:48.639Z,4.09
2019-03-10T00:38:19.000Z,4.16
2019-03-10T00:41:24.002Z,4.25
2019-03-10T00:45:05.472Z,4.29
2019-03-10T00:48:43.285Z,4.31
2019-03-10T00:52:03.290Z,4.12
2019-03-10T00:54:32.936Z,4.13
2019-03-10T00:57:04.384Z,4.21
2019-03-10T00:59:34.369Z,4.22
2019-03-10T01:02:04.317Z,4.26
2019-03-10T01:04:34.480Z,4.06
2019-03-10T01:07:04.705Z,3.94
2019-03-10T01:09:35.029Z,4.09
2019-03-10T01:12:08.105Z,4.12
2019-03-10T01:14:38.102Z,4.18
2019-03-10T01:17:07.969Z,4.15
2019-03-10T01:19:39.816Z,4.12
2019-03-10T01:22:09.570Z,4.13
2019-03-10T01:24:39.394Z,4.08
2019-03-10T01:27:10.528Z,4.08
2019-03-10T01:29:40.287Z,4.06
2019-03-10T01:32:31.202Z,4.04
2019-03-10T01:35:25.297Z,4.08
2019-03-10T01:37:55.458Z,3.97
2019-03-10T01:40:25.367Z,4.04
2019-03-10T01:42:55.106Z,4.11
2019-03-10T01:45:25.469Z,4.16
2019-03-10T01:47:55.326Z,4.03
2019-03-10T01:50:25.170Z,3.93
2019-03-10T01:52:54.974Z,3.82
2019-03-10T01:55:24.928Z,3.78
2019-03-10T01:57:54.891Z,3.67
2019-03-10T02:00:24.857Z,3.62
2019-03-10T02:02:54.940Z,3.58
2019-03-10T02:05:24.612Z,3.59
2019-03-10T02:07:54.879Z,3.55
2019-03-10T02:10:25.026Z,3.45
2019-03-10T02:12:54.966Z,3.41
2019-03-10T02:15:27.273Z,3.39
2019-03-10T02:17:56.977Z,3.34
2019-03-10T02:20:27.229Z,3.34
2019-03-10T02:22:59.125Z,3.25
2019-03-10T02:25:29.048Z,3.15
2019-03-10T02:27:58.831Z,3.14
2019-03-10T02:30:28.780Z,0.50
2019-03-10T02:32:58.654Z,3.12
2019-03-10T02:35:28.357Z,3.16
2019-03-10T02:37:58.327Z,3.14
2019-03-10T02:40:28.969Z,3.11
2019-03-10T02:42:59.059Z,3.10
2019-03-10T02:45:28.793Z,3.01
2019-03-10T02:47:59.110Z,3.04
2019-03-10T02:50:28.896Z,2.93
2019-03-10T02:52:58.864Z,2.87
2019-03-10T02:55:28.935Z,2.90
2019-03-10T02:57:59.174Z,2.94
2019-03-10T03:00:28.954Z,2.94
2019-03-10T03:02:58.934Z,2.90
2019-03-10T03:05:28.827Z,2.85
2019-03-10T03:07:58.563Z,2.74
2019-03-10T03:10:29.212Z,2.75
2019-03-10T03:12:58.786Z,2.60
2019-03-10T03:15:28.533Z,2.53
2019-03-10T03:17:58.822Z,1.49
2019-03-10T03:20:28.686Z,2.51
2019-03-10T03:22:58.349Z,2.51
2019-03-10T03:25:28.541Z,2.44
2019-03-10T03:27:58.603Z,2.43
2019-03-10T03:30:28.419Z,2.45
2019-03-10T03:32:58.461Z,2.40
2019-03-10T03:36:15.113Z,2.38
2019-03-10T03:38:48.420Z,2.34
2019-03-10T03:41:19.071Z,2.39
2019-03-10T03:43:49.155Z,2.35
2019-03-10T03:46:19.200Z,2.35
2019-03-10T03:48:49.063Z,2.39
2019-03-10T03:51:18.959Z,2.51
2019-03-10T03:53:48.764Z,2.48
2019-03-10T03:56:18.911Z,2.42
2019-03-10T03:58:48.890Z,2.47
2019-03-10T04:01:30.814Z,2.51
2019-03-10T04:04:00.944Z,2.52
2019-03-10T04:06:30.471Z,2.50
2019-03-10T04:09:00.315Z,2.56
2019-03-10T04:11:30.539Z,2.48
2019-03-10T04:14:01.656Z,2.40
2019-03-10T04:16:31.730Z,2.29
2019-03-10T04:19:01.748Z,2.37
2019-03-10T04:21:31.631Z,2.39
2019-03-10T04:24:01.727Z,2.36
2019-03-10T04:26:31.575Z,2.32
2019-03-10T04:29:01.309Z,2.33
2019-03-10T04:31:31.314Z,2.29
2019-03-10T04:34:00.860Z,2.38
2019-03-10T04:36:30.346Z,2.18
2019-03-10T04:39:00.330Z,2.18
2019-03-10T04:41:30.582Z,2.28
2019-03-10T04:44:00.440Z,2.30
2019-03-10T04:46:30.341Z,2.33
2019-03-10T04:49:00.125Z,2.28
2019-03-10T04:51:30.087Z,2.29
2019-03-10T04:54:00.211Z,2.26
2019-03-10T04:56:40.850Z,2.19
2019-03-10T04:59:12.305Z,2.12
2019-03-10T05:01:43.118Z,2.06
2019-03-10T05:04:13.340Z,2.16
2019-03-10T05:06:43.144Z,2.23
2019-03-10T05:09:12.689Z,2.18
2019-03-10T05:11:42.815Z,2.06
2019-03-10T05:14:12.743Z,2.07
2019-03-10T05:16:42.772Z,2.08
2019-03-10T05:19:13.437Z,2.13
2019-03-10T05:21:42.902Z,2.14
2019-03-10T05:24:15.135Z,2.10
2019-03-10T05:26:45.124Z,2.06
2019-03-10T05:29:15.416Z,1.86
2019-03-10T05:31:45.307Z,1.98
2019-03-10T05:34:15.888Z,2.02
2019-03-10T05:36:45.990Z,2.03
2019-03-10T05:39:17.154Z,2.06
2019-03-10T05:41:47.049Z,2.03
2019-03-10T05:44:16.903Z,2.09
2019-03-10T05:46:47.150Z,2.09
2019-03-10T05:49:17.003Z,2.00
2019-03-10T05:51:48.297Z,2.02
2019-03-10T05:54:18.758Z,1.99
2019-03-10T05:56:48.827Z,1.90
2019-03-10T05:59:18.843Z,1.91
2019-03-10T06:01:48.994Z,1.97
2019-03-10T06:04:19.261Z,2.00
2019-03-10T06:06:49.816Z,2.06
2019-03-10T06:09:19.632Z,2.13
2019-03-10T06:11:49.843Z,2.15
2019-03-10T06:14:20.138Z,2.16
2019-03-10T06:16:49.878Z,2.07
2019-03-10T06:19:20.082Z,2.09
2019-03-10T06:21:50.078Z,2.09
2019-03-10T06:24:20.023Z,2.01
2019-03-10T06:26:50.188Z,2.01
2019-03-10T06:29:21.189Z,2.06
2019-03-10T06:31:52.661Z,2.06
2019-03-10T06:34:22.561Z,2.10
2019-03-10T06:36:52.536Z,2.12
2019-03-10T06:39:22.477Z,2.11
2019-03-10T06:41:52.539Z,2.07
2019-03-10T06:44:22.443Z,2.05
2019-03-10T06:46:52.637Z,2.09
2019-03-10T06:49:22.419Z,2.15
2019-03-10T06:51:53.231Z,2.12
2019-03-10T06:54:23.131Z,2.12
2019-03-10T06:56:53.289Z,2.14
2019-03-10T06:59:22.947Z,2.08
2019-03-10T07:01:52.844Z,2.04
2019-03-10T07:04:22.710Z,2.03
2019-03-10T07:06:52.460Z,2.05
2019-03-10T07:09:22.480Z,2.07
2019-03-10T07:11:52.970Z,2.10
2019-03-10T07:14:22.911Z,2.08
2019-03-10T07:16:52.800Z,2.09
2019-03-10T07:19:23.031Z,2.09
2019-03-10T07:21:52.646Z,2.01
2019-03-10T07:24:22.496Z,2.10
2019-03-10T07:26:52.633Z,2.08
2019-03-10T07:29:44.235Z,2.04
2019-03-10T07:32:25.015Z,2.05
2019-03-10T07:37:39.921Z,2.15
2019-03-10T07:40:23.180Z,2.13
2019-03-10T07:43:10.607Z,2.13
2019-03-10T07:45:58.199Z,2.15
2019-03-10T07:48:37.468Z,2.18
2019-03-10T07:51:29.094Z,2.20
2019-03-10T07:54:16.610Z,2.17
2019-03-10T07:57:23.566Z,2.17
2019-03-10T08:00:12.162Z,2.11
2019-03-10T08:02:55.174Z,2.09
2019-03-10T08:05:43.823Z,2.13
2019-03-10T08:08:26.960Z,2.19
2019-03-10T08:11:15.126Z,2.16
2019-03-10T08:14:03.913Z,2.15
2019-03-10T08:17:07.870Z,2.22
2019-03-10T08:19:59.290Z,2.26
2019-03-10T08:22:54.292Z,2.29
2019-03-10T08:25:48.880Z,2.34
2019-03-10T08:28:40.785Z,2.37
2019-03-10T08:31:32.850Z,2.44
2019-03-10T08:34:27.836Z,2.47
2019-03-10T08:37:15.385Z,2.45
2019-03-10T08:40:07.302Z,2.34
2019-03-10T08:42:56.042Z,2.50
2019-03-10T08:45:40.651Z,2.49
2019-03-10T08:48:35.452Z,2.48
2019-03-10T08:51:14.929Z,2.48
2019-03-10T08:53:56.430Z,2.56
2019-03-10T08:56:44.043Z,2.58
2019-03-10T08:59:18.554Z,2.69
2019-03-10T09:01:55.762Z,2.69
2019-03-10T09:04:44.621Z,2.67
2019-03-10T09:07:39.339Z,2.73
2019-03-10T09:10:31.646Z,2.67
2019-03-10T09:13:08.903Z,2.72
2019-03-10T09:15:56.245Z,2.66
2019-03-10T09:18:57.151Z,2.63
2019-03-10T09:21:35.018Z,2.65
2019-03-10T09:24:18.336Z,2.79
2019-03-10T09:27:06.087Z,2.82
2019-03-10T09:29:59.865Z,2.80
2019-03-10T09:32:51.461Z,2.86
2019-03-10T09:35:40.352Z,2.99
2019-03-10T09:38:34.654Z,3.03
2019-03-10T09:41:26.856Z,2.97
2019-03-10T09:44:18.233Z,3.00
2019-03-10T09:47:01.081Z,3.03
2019-03-10T09:49:53.391Z,3.12
2019-03-10T09:52:42.464Z,3.14
2019-03-10T09:55:37.316Z,3.26
2019-03-10T09:58:23.481Z,3.29
2019-03-10T10:01:10.587Z,3.21
2019-03-10T10:04:03.354Z,3.28
2019-03-10T10:06:57.769Z,3.36
2019-03-10T10:09:39.970Z,3.40
2019-03-10T10:12:43.975Z,3.42
2019-03-10T10:15:39.161Z,3.49
2019-03-10T10:18:14.857Z,3.64
2019-03-10T10:21:19.003Z,3.68
2019-03-10T10:24:05.976Z,3.80
2019-03-10T10:26:53.162Z,3.72
2019-03-10T10:29:33.058Z,3.77
2019-03-10T10:32:25.020Z,3.75
2019-03-10T10:35:15.619Z,3.77
2019-03-10T10:38:02.958Z,3.87
2019-03-10T10:40:54.418Z,3.97
2019-03-10T10:43:42.833Z,4.06
2019-03-10T10:46:33.304Z,4.04
2019-03-10T10:49:11.742Z,3.98
2019-03-10T10:52:00.470Z,4.06
2019-03-10T10:54:59.568Z,4.16
2019-03-10T10:57:47.615Z,4.12
2019-03-10T11:00:46.312Z,4.27
2019-03-10T11:03:44.281Z,4.21
2019-03-10T11:06:30.587Z,4.21
2019-03-10T11:09:10.742Z,4.20
2019-03-10T11:11:59.428Z,4.23
2019-03-10T11:14:39.934Z,4.23
2019-03-10T11:17:34.661Z,4.33
2019-03-10T11:20:12.115Z,4.55
2019-03-10T11:23:03.758Z,4.62
2019-03-10T11:25:50.694Z,4.72
2019-03-10T11:28:38.631Z,4.59
2019-03-10T11:31:33.579Z,4.57
2019-03-10T11:34:22.266Z,4.57
2019-03-10T11:37:17.286Z,4.60
2019-03-10T11:40:04.754Z,4.62
2019-03-10T11:42:55.888Z,4.66
2019-03-10T11:45:45.982Z,4.31
2019-03-10T11:48:29.597Z,4.35
2019-03-10T11:51:08.765Z,4.39
2019-03-10T11:54:00.530Z,4.17
2019-03-10T11:56:37.952Z,4.13
2019-03-10T11:59:24.279Z,4.25
2019-03-10T12:02:18.868Z,4.22
2019-03-10T12:05:16.876Z,4.29
2019-03-10T12:08:24.434Z,4.27
2019-03-10T12:10:57.629Z,4.14
2019-03-10T12:13:27.484Z,4.16
2019-03-10T12:15:57.516Z,4.11
2019-03-10T12:18:27.669Z,4.10
2019-03-10T12:20:57.350Z,4.22
2019-03-10T12:23:27.527Z,4.38
2019-03-10T12:25:58.149Z,4.33
2019-03-10T12:28:28.853Z,4.39
2019-03-10T12:30:58.836Z,4.42
2019-03-10T12:33:28.925Z,4.30
2019-03-10T12:35:59.884Z,4.47
2019-03-10T12:38:29.959Z,4.74
2019-03-10T12:40:59.885Z,4.77
2019-03-10T12:43:29.840Z,4.66
2019-03-10T12:46:00.767Z,4.40
2019-03-10T12:48:30.994Z,4.48
2019-03-10T12:51:01.708Z,4.69
2019-03-10T12:53:31.475Z,4.69
2019-03-10T12:56:01.296Z,4.70
2019-03-10T12:58:31.286Z,4.79
2019-03-10T13:01:06.645Z,4.79
2019-03-10T13:03:35.942Z,4.74
2019-03-10T13:06:06.332Z,4.81
2019-03-10T13:08:36.409Z,4.81
2019-03-10T13:11:07.344Z,4.64
2019-03-10T13:13:37.341Z,4.74
2019-03-10T13:16:07.879Z,4.78
2019-03-10T13:18:38.407Z,4.83
2019-03-10T13:21:08.578Z,4.88
2019-03-10T13:23:38.458Z,4.99
2019-03-10T13:26:09.606Z,4.99
2019-03-10T13:28:39.501Z,5.04
2019-03-10T13:31:09.591Z,5.19
2019-03-10T13:33:39.453Z,5.06
2019-03-10T13:36:10.315Z,5.03
2019-03-10T13:38:40.678Z,5.03
2019-03-10T13:41:12.301Z,4.93
2019-03-10T13:43:42.208Z,4.91
2019-03-10T13:46:12.172Z,4.75
2019-03-10T13:48:41.858Z,4.65
2019-03-10T13:51:12.369Z,4.65
2019-03-10T13:53:42.056Z,4.50
2019-03-10T13:56:11.761Z,4.56
2019-03-10T13:58:41.791Z,4.60
2019-03-10T14:01:12.059Z,4.55
2019-03-10T14:03:42.186Z,4.49
2019-03-10T14:06:12.672Z,4.50
2019-03-10T14:08:42.583Z,4.64
2019-03-10T14:11:12.480Z,4.60
2019-03-10T14:13:42.485Z,4.50
2019-03-10T14:16:12.081Z,4.26
2019-03-10T14:18:42.004Z,4.39
2019-03-10T14:21:12.658Z,4.48
2019-03-10T14:23:42.563Z,4.38
2019-03-10T14:26:12.738Z,4.25
2019-03-10T14:28:42.856Z,4.24
2019-03-10T14:31:12.684Z,4.42
2019-03-10T14:33:42.503Z,4.25
2019-03-10T14:36:12.521Z,4.38
2019-03-10T14:38:45.264Z,4.37
2019-03-10T14:41:15.749Z,4.16
2019-03-10T14:43:45.316Z,4.08
2019-03-10T14:46:15.171Z,4.22
2019-03-10T14:48:45.164Z,4.27
2019-03-10T14:51:16.913Z,4.26
2019-03-10T14:53:46.980Z,4.29
2019-03-10T14:56:17.119Z,4.28
2019-03-10T14:58:47.644Z,4.21
2019-03-10T15:01:18.923Z,4.04
2019-03-10T15:03:48.770Z,4.03
2019-03-10T15:06:19.415Z,4.05
2019-03-10T15:08:49.471Z,3.93
2019-03-10T15:11:19.668Z,3.99
2019-03-10T15:13:49.444Z,4.07
2019-03-10T15:16:19.066Z,4.09
2019-03-10T15:18:48.964Z,4.17
2019-03-10T15:21:19.031Z,4.22
2019-03-10T15:23:49.157Z,4.02
2019-03-10T15:26:19.249Z,4.00
2019-03-10T15:28:50.465Z,3.96
2019-03-10T15:31:20.596Z,3.98
2019-03-10T15:33:50.319Z,3.97
2019-03-10T15:36:20.970Z,3.88
2019-03-10T15:38:51.113Z,3.74
2019-03-10T15:41:20.891Z,3.74
2019-03-10T15:43:50.677Z,3.70
2019-03-10T15:46:20.619Z,3.73
2019-03-10T15:48:50.703Z,3.80
2019-03-10T15:51:21.143Z,3.83
2019-03-10T15:53:51.016Z,3.79
2019-03-10T15:56:20.945Z,3.71
2019-03-10T15:58:51.715Z,3.53
2019-03-10T16:01:21.658Z,3.47
2019-03-10T16:03:52.272Z,3.44
2019-03-10T16:06:22.705Z,3.38
2019-03-10T16:08:52.701Z,3.32
2019-03-10T16:11:22.382Z,3.33
2019-03-10T16:13:52.298Z,3.29
2019-03-10T16:16:22.127Z,3.32
2019-03-10T16:18:51.666Z,3.27
2019-03-10T16:21:21.801Z,3.16
2019-03-10T16:23:51.971Z,3.10
2019-03-10T16:26:22.096Z,3.16
2019-03-10T16:28:51.857Z,3.24
2019-03-10T16:31:21.658Z,3.21
2019-03-10T16:33:51.306Z,2.97
2019-03-10T16:36:22.132Z,2.83
2019-03-10T16:38:53.017Z,2.85
2019-03-10T16:41:23.538Z,2.95
2019-03-10T16:43:53.511Z,3.07
2019-03-10T16:46:23.474Z,1.26
2019-03-10T16:48:53.093Z,2.87
2019-03-10T16:51:23.502Z,2.89
2019-03-10T16:53:55.777Z,2.99
2019-03-10T16:56:32.199Z,3.01
2019-03-10T16:59:02.992Z,2.78
2019-03-10T17:01:32.798Z,2.97
2019-03-10T17:04:02.838Z,2.94
2019-03-10T17:06:33.331Z,2.86
2019-03-10T17:09:11.980Z,2.88
2019-03-10T17:11:41.940Z,2.95
2019-03-10T17:14:12.010Z,2.91
2019-03-10T17:16:44.170Z,2.85
2019-03-10T17:19:13.890Z,2.85
2019-03-10T17:21:44.196Z,2.86
2019-03-10T17:24:14.705Z,2.88
2019-03-10T17:26:46.370Z,2.84
2019-03-10T17:29:16.840Z,2.75
2019-03-10T17:31:46.592Z,2.77
2019-03-10T17:34:16.347Z,2.63
2019-03-10T17:36:46.336Z,2.63
2019-03-10T17:39:15.974Z,2.62
2019-03-10T17:41:45.831Z,2.55
2019-03-10T17:44:16.013Z,2.45
2019-03-10T17:46:46.100Z,2.39
2019-03-10T17:49:16.198Z,2.27
2019-03-10T17:51:47.356Z,2.20
2019-03-10T17:54:16.978Z,2.11
2019-03-10T17:56:49.302Z,2.11
2019-03-10T17:59:19.108Z,2.07
2019-03-10T18:01:48.967Z,2.19
2019-03-10T18:04:18.626Z,2.11
2019-03-10T18:06:49.098Z,2.06
2019-03-10T18:09:19.976Z,1.97
2019-03-10T18:11:49.722Z,1.90
2019-03-10T18:14:20.577Z,2.00
2019-03-10T18:16:50.571Z,1.28
2019-03-10T18:19:21.137Z,2.14
2019-03-10T18:21:51.439Z,2.08
2019-03-10T18:24:22.601Z,2.03
2019-03-10T18:26:52.620Z,2.02
2019-03-10T18:29:22.500Z,2.15
2019-03-10T18:31:53.294Z,2.23
2019-03-10T18:34:22.914Z,2.11
2019-03-10T18:36:52.798Z,2.05
2019-03-10T18:39:22.540Z,2.13
2019-03-10T18:41:52.097Z,2.18
2019-03-10T18:44:23.512Z,2.08
2019-03-10T18:46:53.820Z,1.99
2019-03-10T18:49:23.998Z,1.93
2019-03-10T18:51:54.381Z,1.84
2019-03-10T18:54:25.203Z,1.98
2019-03-10T18:56:55.322Z,1.96
2019-03-10T18:59:25.174Z,2.00
2019-03-10T19:01:55.052Z,1.99
2019-03-10T19:04:26.655Z,1.99
2019-03-10T19:06:57.713Z,2.04
2019-03-10T19:09:27.588Z,2.07
2019-03-10T19:11:57.507Z,2.08
2019-03-10T19:14:27.583Z,1.96
2019-03-10T19:16:57.743Z,1.86
2019-03-10T19:19:27.452Z,1.84
2019-03-10T19:21:57.436Z,1.85
2019-03-10T19:24:27.597Z,1.80
2019-03-10T19:27:06.377Z,1.86
2019-03-10T19:29:38.375Z,1.98
2019-03-10T19:32:08.213Z,1.92
2019-03-10T19:34:37.828Z,2.14
2019-03-10T19:37:07.844Z,2.08
2019-03-10T19:39:38.031Z,2.08
2019-03-10T19:42:08.700Z,2.14
2019-03-10T19:44:38.590Z,2.21
2019-03-10T19:47:08.576Z,2.16
2019-03-10T19:49:38.262Z,2.18
2019-03-10T19:52:08.423Z,2.17
2019-03-10T19:54:38.215Z,2.22
2019-03-10T19:57:07.982Z,2.04
2019-03-10T19:59:37.580Z,2.11
2019-03-10T20:02:08.704Z,2.17
2019-03-10T20:04:38.812Z,2.30
2019-03-10T20:07:09.308Z,2.30
2019-03-10T20:09:39.163Z,2.33
2019-03-10T20:12:09.462Z,2.25
2019-03-10T20:14:39.284Z,2.29
2019-03-10T20:17:09.029Z,2.33
2019-03-10T20:19:38.707Z,2.32
2019-03-10T20:22:08.607Z,2.25
2019-03-10T20:24:38.291Z,2.18
2019-03-10T20:27:09.603Z,2.26
2019-03-10T20:29:39.518Z,2.35
2019-03-10T20:32:13.962Z,2.34
2019-03-10T20:34:40.924Z,2.38
2019-03-10T20:37:10.896Z,2.31
2019-03-10T20:39:40.799Z,2.33
2019-03-10T20:42:12.142Z,2.28
2019-03-10T20:44:42.726Z,2.34
2019-03-10T20:47:12.486Z,2.36
2019-03-10T20:49:42.360Z,2.37
2019-03-10T20:52:12.783Z,2.36
2019-03-10T20:54:42.427Z,2.35
2019-03-10T20:57:12.616Z,2.32
2019-03-10T20:59:43.633Z,2.31
2019-03-10T21:02:13.319Z,2.40
2019-03-10T21:04:43.558Z,2.37
2019-03-10T21:07:13.699Z,2.40
2019-03-10T21:09:43.732Z,2.32
2019-03-10T21:12:13.381Z,2.36
2019-03-10T21:14:43.179Z,2.37
2019-03-10T21:17:12.875Z,2.37
2019-03-10T21:19:42.818Z,2.39
2019-03-10T21:22:12.942Z,2.40
2019-03-10T21:24:42.568Z,2.43
2019-03-10T21:27:12.336Z,2.49
2019-03-10T21:29:42.106Z,2.55
2019-03-10T21:32:11.788Z,2.53
2019-03-10T21:34:42.315Z,2.50
2019-03-10T21:37:12.034Z,2.57
2019-03-10T21:39:42.189Z,2.58
2019-03-10T21:42:12.017Z,2.63
2019-03-10T21:44:41.778Z,2.61
2019-03-10T21:47:11.495Z,2.59
2019-03-10T21:49:41.187Z,2.63
2019-03-10T21:52:11.098Z,2.68
2019-03-10T21:54:41.023Z,2.72
2019-03-10T21:57:10.780Z,2.74
2019-03-10T21:59:40.460Z,2.75
2019-03-10T22:02:10.342Z,2.68
2019-03-10T22:04:40.250Z,2.59
2019-03-10T22:07:10.014Z,2.62
2019-03-10T22:09:40.197Z,2.63
2019-03-10T22:12:10.007Z,2.46
2019-03-10T22:14:39.969Z,2.38
2019-03-10T22:17:09.685Z,2.36
2019-03-10T22:19:40.710Z,2.20
2019-03-10T22:22:10.315Z,2.08
2019-03-10T22:24:40.470Z,2.03
2019-03-10T22:27:10.208Z,1.99
2019-03-10T22:29:39.910Z,1.95
2019-03-10T22:32:11.492Z,1.91
2019-03-10T22:34:41.227Z,1.86
2019-03-10T22:37:11.042Z,1.81
2019-03-10T22:39:40.885Z,1.81
2019-03-10T22:42:10.634Z,1.78
2019-03-10T22:44:40.233Z,1.71
2019-03-10T22:47:09.926Z,1.70
2019-03-10T22:49:39.770Z,1.69
2019-03-10T22:52:09.990Z,1.75
2019-03-10T22:54:39.717Z,1.72
2019-03-10T22:57:09.522Z,1.70
2019-03-10T22:59:39.252Z,1.70
2019-03-10T23:02:09.914Z,1.69
2019-03-10T23:04:39.445Z,1.66
2019-03-10T23:07:10.075Z,1.69
2019-03-10T23:09:39.642Z,1.67
2019-03-10T23:12:09.486Z,1.67
2019-03-10T23:14:39.255Z,1.66
2019-03-10T23:17:09.191Z,1.68
2019-03-10T23:19:38.828Z,1.73
2019-03-10T23:22:08.684Z,1.70
2019-03-10T23:24:38.365Z,1.62
2019-03-10T23:27:08.319Z,1.61
2019-03-10T23:29:38.099Z,1.55
2019-03-10T23:32:07.903Z,1.54
2019-03-10T23:34:37.654Z,1.52
2019-03-10T23:37:07.298Z,1.52
2019-03-10T23:39:37.032Z,1.53
2019-03-10T23:42:06.887Z,1.59
2019-03-10T23:44:36.533Z,1.58
2019-03-10T23:47:06.377Z,1.62
2019-03-10T23:49:36.229Z,1.62
2019-03-10T23:52:06.062Z,1.60
2019-03-10T23:54:35.548Z,1.57
2019-03-10T23:57:05.235Z,1.48
2019-03-10T23:59:34.798Z,1.41
